Time;durP1;ratioP1;P1;durP2;ratioP2;P2;SDS_P1;SDS_P2;PMS_P1;PMS_P2;Temp;Humidity;BMP_temperature;BMP_pressure;BME280_temperature;BME280_humidity;BME280_pressure;Samples;Min_cycle;Max_cycle;Signal;HPM_P1;HPM_P2
2020/12/27 00:02:12;;;;;;;13.60;12.20;;;;;;;5.38;90.63;100127.38;4992835;28;20141;-74
2020/12/27 00:04:41;;;;;;;14.02;12.73;;;;;;;5.29;90.68;100102.56;4953221;28;20508;-80
2020/12/27 00:07:07;;;;;;;13.10;11.77;;;;;;;5.38;91.05;100108.88;4978426;28;20034;-84
2020/12/27 00:09:34;;;;;;;14.85;12.57;;;;;;;5.34;91.01;100098.53;4988385;28;20053;-82
2020/12/27 00:11:59;;;;;;;13.45;12.07;;;;;;;5.35;91.08;100096.75;4977314;28;20108;-82
2020/12/27 00:14:25;;;;;;;13.95;12.27;;;;;;;5.38;90.74;100072.63;4984847;28;20556;-82
2020/12/27 00:16:51;;;;;;;13.48;12.10;;;;;;;5.34;90.86;100055.41;4991976;28;20130;-74
2020/12/27 00:19:16;;;;;;;13.88;12.52;;;;;;;5.33;90.99;100043.97;4974806;28;20129;-82
2020/12/27 00:21:42;;;;;;;14.48;13.02;;;;;;;5.10;91.64;100003.69;4993101;28;20145;-81
2020/12/27 00:24:07;;;;;;;14.80;13.15;;;;;;;5.26;91.83;100012.91;4981796;28;20112;-74
2020/12/27 00:26:33;;;;;;;16.02;13.98;;;;;;;5.19;92.56;100017.91;4975505;28;20121;-81
2020/12/27 00:28:59;;;;;;;15.52;14.02;;;;;;;5.16;92.77;100003.16;4958321;28;20136;-81
2020/12/27 00:31:24;;;;;;;16.42;14.77;;;;;;;4.90;93.50;99961.41;4973810;28;20448;-81
2020/12/27 00:33:50;;;;;;;16.15;14.65;;;;;;;5.06;93.65;99999.69;4956015;28;20134;-80
2020/12/27 00:36:19;;;;;;;19.30;16.23;;;;;;;4.98;94.20;99981.00;4975373;28;20510;-81
2020/12/27 00:38:45;;;;;;;18.30;16.35;;;;;;;4.97;94.51;99984.63;4981000;28;20273;-81
2020/12/27 00:41:10;;;;;;;18.75;16.83;;;;;;;4.95;94.79;99978.66;4992147;28;20118;-82
2020/12/27 00:43:36;;;;;;;18.77;16.85;;;;;;;4.88;94.95;99963.34;4975393;28;20113;-74
2020/12/27 00:46:02;;;;;;;18.48;16.33;;;;;;;4.90;95.46;99957.91;4958263;28;20653;-81
2020/12/27 00:48:27;;;;;;;19.60;17.27;;;;;;;4.83;95.45;99933.81;4976727;28;20061;-82
2020/12/27 00:50:53;;;;;;;20.55;18.45;;;;;;;4.77;96.23;99931.75;4993370;28;20503;-80
2020/12/27 00:53:19;;;;;;;19.08;16.95;;;;;;;4.78;95.37;99928.13;4967491;28;20117;-82
2020/12/27 00:55:44;;;;;;;19.80;17.20;;;;;;;4.77;95.73;99926.47;4966185;28;20118;-74
2020/12/27 00:58:10;;;;;;;18.98;16.65;;;;;;;4.80;96.03;99920.06;4967978;28;20122;-82
2020/12/27 01:00:35;;;;;;;19.42;16.30;;;;;;;4.74;94.93;99900.28;4967549;28;20138;-82
2020/12/27 01:03:01;;;;;;;21.80;16.92;;;;;;;4.79;95.12;99898.09;4969094;28;20165;-74
2020/12/27 01:05:27;;;;;;;22.02;17.45;;;;;;;4.63;95.16;99881.94;4974577;28;20121;-82
2020/12/27 01:07:52;;;;;;;19.10;16.63;;;;;;;4.74;95.16;99874.72;4974913;28;20221;-80
2020/12/27 01:10:18;;;;;;;18.83;16.83;;;;;;;4.72;95.66;99874.00;4977056;28;20117;-81
2020/12/27 01:12:45;;;;;;;20.75;18.15;;;;;;;4.48;95.41;99826.03;4985281;28;20663;-81
2020/12/27 01:15:11;;;;;;;23.27;17.27;;;;;;;4.68;95.11;99858.59;4970200;28;20049;-74
2020/12/27 01:17:37;;;;;;;19.63;17.50;;;;;;;4.62;95.48;99853.84;4976280;28;20034;-80
2020/12/27 01:20:03;;;;;;;21.13;18.38;;;;;;;4.59;95.36;99829.34;4992033;28;20031;-80
2020/12/27 01:22:32;;;;;;;20.73;17.10;;;;;;;4.58;95.25;99840.88;4990286;28;20532;-83
2020/12/27 01:24:58;;;;;;;21.90;17.88;;;;;;;4.58;95.30;99814.47;4977578;28;20042;-82
2020/12/27 01:27:23;;;;;;;24.50;18.00;;;;;;;4.59;95.61;99828.53;4973146;28;20323;-80
2020/12/27 01:29:49;;;;;;;24.40;19.17;;;;;;;4.47;95.90;99795.28;4991851;28;20147;-80
2020/12/27 01:32:14;;;;;;;22.60;19.13;;;;;;;4.54;96.10;99812.25;4957728;28;20963;-85
2020/12/27 01:34:40;;;;;;;23.42;18.27;;;;;;;4.54;95.46;99788.47;4973535;28;20133;-82
2020/12/27 01:37:05;;;;;;;21.50;17.20;;;;;;;4.54;95.65;99738.25;4988971;28;20125;-81
2020/12/27 01:39:31;;;;;;;22.73;17.70;;;;;;;4.49;95.79;99728.13;4957036;28;20141;-80
2020/12/27 01:41:56;;;;;;;21.95;18.35;;;;;;;4.20;95.86;99686.72;4974429;28;20129;-80
2020/12/27 01:44:22;;;;;;;24.38;18.95;;;;;;;4.44;96.10;99732.97;4976814;28;20113;-79
2020/12/27 01:46:47;;;;;;;23.92;18.33;;;;;;;4.41;95.83;99734.09;4991314;28;20472;-80
2020/12/27 01:49:13;;;;;;;22.30;18.15;;;;;;;4.38;96.83;99713.25;4972987;28;20122;-78
2020/12/27 01:51:39;;;;;;;23.27;18.17;;;;;;;4.16;96.12;99679.22;4957975;28;20656;-78
2020/12/27 01:54:04;;;;;;;21.38;17.95;;;;;;;4.39;96.18;99706.19;4967454;28;20121;-85
2020/12/27 01:56:42;;;;;;;21.10;15.65;;;;;;;4.36;95.93;99694.06;4981346;28;20065;-78
2020/12/27 01:59:18;;;;;;;21.25;15.40;;;;;;;4.37;96.04;99669.31;4972673;28;20071;-75
2020/12/27 02:01:44;;;;;;;17.52;14.95;;;;;;;4.19;96.09;99629.59;4969283;28;20059;-78
2020/12/27 02:04:11;;;;;;;21.63;15.10;;;;;;;4.33;95.33;99654.75;4952711;28;20050;-79
2020/12/27 02:06:42;;;;;;;18.73;15.00;;;;;;;4.14;95.35;99611.53;4968444;28;20581;-78
2020/12/27 02:09:08;;;;;;;19.05;14.27;;;;;;;4.34;94.89;99637.06;4945182;28;20037;-79
2020/12/27 02:11:34;;;;;;;17.48;13.85;;;;;;;4.33;95.02;99615.13;4970671;28;20042;-80
2020/12/27 02:13:59;;;;;;;18.30;14.13;;;;;;;4.32;95.36;99578.28;4969968;28;20121;-79
2020/12/27 02:16:28;;;;;;;19.58;13.73;;;;;;;4.23;95.56;99548.28;4954753;28;20119;-78
2020/12/27 02:19:01;;;;;;;18.58;14.98;;;;;;;4.08;95.62;99524.97;4971456;28;20039;-79
2020/12/27 02:21:27;;;;;;;17.80;14.35;;;;;;;3.98;95.10;99529.44;4953387;28;20398;-78
2020/12/27 02:24:02;;;;;;;17.85;14.25;;;;;;;4.02;95.57;99519.44;4938467;28;20070;-74
2020/12/27 02:26:27;;;;;;;22.27;14.18;;;;;;;4.22;95.70;99542.19;4970940;28;20035;-78
2020/12/27 02:28:56;;;;;;;17.40;14.55;;;;;;;3.94;95.15;99488.47;4969531;28;20401;-80
2020/12/27 02:31:25;;;;;;;17.60;12.27;;;;;;;4.11;94.92;99508.03;4951583;28;20468;-78
2020/12/27 02:33:51;;;;;;;17.83;13.13;;;;;;;4.09;95.21;99486.22;4935860;28;20045;-74
2020/12/27 02:36:16;;;;;;;16.75;12.45;;;;;;;3.77;95.23;99440.75;4953825;28;20114;-78
2020/12/27 02:38:42;;;;;;;18.70;13.52;;;;;;;4.20;95.32;99483.38;4966777;28;20062;-78
2020/12/27 02:41:15;;;;;;;17.98;13.35;;;;;;;4.22;95.96;99473.50;4937371;28;20717;-74
2020/12/27 02:43:40;;;;;;;17.80;13.75;;;;;;;3.95;95.71;99440.81;4958408;28;20453;-78
2020/12/27 02:46:09;;;;;;;14.05;11.70;;;;;;;3.92;95.41;99438.47;4985684;28;20134;-74
2020/12/27 02:48:35;;;;;;;15.13;12.50;;;;;;;4.19;95.05;99471.16;4946582;28;20031;-78
2020/12/27 02:51:01;;;;;;;14.48;11.70;;;;;;;4.02;95.30;99432.31;4969367;28;20549;-74
2020/12/27 02:53:26;;;;;;;16.15;11.13;;;;;;;4.18;95.94;99458.13;4966730;28;20035;-78
2020/12/27 02:55:52;;;;;;;17.00;12.10;;;;;;;4.18;95.15;99450.19;4959406;28;20753;-74
2020/12/27 02:58:17;;;;;;;14.93;11.55;;;;;;;4.18;95.77;99429.06;4968927;28;20113;-78
2020/12/27 03:00:43;;;;;;;15.30;12.15;;;;;;;4.16;95.47;99412.53;4967694;28;20137;-82
2020/12/27 03:03:09;;;;;;;13.82;11.02;;;;;;;4.16;95.07;99429.19;4971507;28;20164;-78
2020/12/27 03:05:34;;;;;;;12.45;11.15;;;;;;;4.08;95.90;99394.78;4990581;28;20413;-75
2020/12/27 03:08:00;;;;;;;15.85;11.77;;;;;;;4.13;95.94;99401.28;4969243;28;20122;-79
2020/12/27 03:10:25;;;;;;;14.98;11.35;;;;;;;4.14;96.09;99420.59;4979165;28;20114;-78
2020/12/27 03:12:51;;;;;;;14.88;11.30;;;;;;;4.14;95.97;99396.81;4980403;28;20556;-78
2020/12/27 03:15:16;;;;;;;12.93;10.05;;;;;;;4.12;96.34;99367.94;4989936;28;20544;-78
2020/12/27 03:17:42;;;;;;;13.88;11.27;;;;;;;4.10;96.52;99369.06;4970473;28;20058;-76
2020/12/27 03:20:16;;;;;;;12.50;9.63;;;;;;;4.14;96.34;99362.50;4956217;28;20133;-79
2020/12/27 03:22:42;;;;;;;13.00;10.30;;;;;;;4.13;96.94;99363.50;4987409;28;20100;-78
2020/12/27 03:25:08;;;;;;;13.55;9.90;;;;;;;4.13;96.79;99356.41;4997803;28;20046;-75
2020/12/27 03:27:33;;;;;;;13.15;9.18;;;;;;;4.12;96.96;99335.44;4969084;28;20113;-78
2020/12/27 03:29:59;;;;;;;11.65;9.35;;;;;;;3.90;97.02;99310.28;4972613;28;20189;-78
2020/12/27 03:32:24;;;;;;;11.48;9.10;;;;;;;4.05;97.25;99308.81;4937579;28;20544;-79
2020/12/27 03:34:50;;;;;;;10.45;8.88;;;;;;;4.07;97.31;99300.72;4969812;28;20129;-75
2020/12/27 03:37:15;;;;;;;12.50;9.90;;;;;;;3.87;97.75;99260.41;4987494;28;20046;-77
2020/12/27 03:39:41;;;;;;;13.07;9.70;;;;;;;3.34;97.53;99158.13;4982937;28;20042;-78
2020/12/27 03:42:06;;;;;;;13.88;10.02;;;;;;;4.07;97.74;99284.88;4987516;28;20555;-80
2020/12/27 03:44:32;;;;;;;11.27;8.68;;;;;;;4.08;97.35;99270.69;4986658;28;20034;-78
2020/12/27 03:46:57;;;;;;;12.82;9.00;;;;;;;4.07;98.06;99247.91;4969003;28;20152;-78
2020/12/27 03:49:23;;;;;;;12.23;8.88;;;;;;;4.06;98.52;99262.09;4965582;28;20121;-77
2020/12/27 03:51:49;;;;;;;12.43;9.48;;;;;;;3.75;98.45;99188.53;4984334;28;20125;-78
2020/12/27 03:54:14;;;;;;;14.07;10.27;;;;;;;4.09;98.94;99243.31;4973889;28;20502;-75
2020/12/27 03:56:40;;;;;;;12.07;9.65;;;;;;;3.96;97.85;99215.50;4956332;28;20176;-75
2020/12/27 03:59:05;;;;;;;10.38;8.68;;;;;;;3.79;98.48;99168.81;4970722;28;20525;-75
2020/12/27 04:01:33;;;;;;;13.02;10.05;;;;;;;4.08;98.92;99234.56;4959401;28;20129;-78
2020/12/27 04:03:58;;;;;;;11.48;9.27;;;;;;;4.10;98.93;99226.50;4965415;28;20134;-74
2020/12/27 04:06:24;;;;;;;14.63;9.63;;;;;;;4.11;98.22;99213.16;4951607;28;20119;-75
2020/12/27 04:08:49;;;;;;;11.52;9.82;;;;;;;4.10;98.83;99200.91;4969226;28;20129;-76
2020/12/27 04:11:15;;;;;;;15.13;10.13;;;;;;;4.05;98.25;99178.59;4984667;28;20118;-76
2020/12/27 04:13:40;;;;;;;14.65;10.52;;;;;;;4.12;98.93;99193.69;4952515;28;20058;-73
2020/12/27 04:16:06;;;;;;;9.95;8.25;;;;;;;4.12;98.32;99159.38;4972027;28;20118;-72
2020/12/27 04:18:32;;;;;;;12.60;8.90;;;;;;;4.14;98.77;99161.84;4956785;28;20035;-72
2020/12/27 04:20:57;;;;;;;12.45;9.23;;;;;;;4.14;98.30;99167.97;4973605;28;20170;-72
2020/12/27 04:23:23;;;;;;;9.63;8.65;;;;;;;4.03;98.26;99131.25;4971513;28;20129;-77
2020/12/27 04:25:48;;;;;;;10.38;7.78;;;;;;;4.07;98.83;99122.03;4956129;28;20178;-74
2020/12/27 04:28:14;;;;;;;8.10;7.30;;;;;;;4.13;98.25;99115.31;4954827;28;20138;-78
2020/12/27 04:30:39;;;;;;;10.65;7.78;;;;;;;4.17;98.59;99110.56;4973080;28;20073;-80
2020/12/27 04:33:05;;;;;;;8.68;6.63;;;;;;;4.19;97.71;99101.50;4975956;28;20121;-84
2020/12/27 04:35:30;;;;;;;7.38;6.68;;;;;;;4.21;98.42;99085.47;4973264;28;20038;-79
2020/12/27 04:37:56;;;;;;;10.43;7.32;;;;;;;4.16;98.51;99064.03;4956799;28;20125;-80
2020/12/27 04:40:21;;;;;;;7.43;6.68;;;;;;;4.01;98.41;99032.91;4972466;28;20121;-75
2020/12/27 04:42:50;;;;;;;8.25;6.57;;;;;;;4.25;98.51;99049.88;4967160;28;20150;-80
2020/12/27 04:45:16;;;;;;;12.38;6.93;;;;;;;4.15;98.27;99023.56;4971733;28;20034;-80
2020/12/27 04:47:41;;;;;;;8.52;6.90;;;;;;;4.07;97.95;99015.63;4952137;28;20039;-80
2020/12/27 04:50:07;;;;;;;7.38;6.00;;;;;;;4.25;98.15;99029.59;4950995;28;20122;-74
2020/12/27 04:52:33;;;;;;;8.10;6.20;;;;;;;4.16;97.99;98974.25;4969811;28;20117;-74
2020/12/27 04:54:59;;;;;;;6.72;5.65;;;;;;;4.25;98.09;98991.78;4969927;28;20035;-81
2020/12/27 04:57:24;;;;;;;7.32;6.13;;;;;;;4.16;97.96;98961.06;4938261;28;20557;-74
2020/12/27 04:59:50;;;;;;;6.45;5.13;;;;;;;4.13;97.29;98956.91;4945035;28;20073;-81
2020/12/27 05:02:15;;;;;;;6.47;5.38;;;;;;;4.29;97.70;98943.78;4952672;28;20139;-83
2020/12/27 05:04:42;;;;;;;6.63;4.82;;;;;;;3.42;98.03;98779.47;4986225;28;20106;-84
2020/12/27 05:07:08;;;;;;;5.75;4.72;;;;;;;4.30;98.13;98915.56;4969644;28;20298;-80
2020/12/27 05:09:33;;;;;;;4.93;4.40;;;;;;;4.27;97.82;98913.25;4971312;28;20074;-80
2020/12/27 05:11:59;;;;;;;4.88;4.32;;;;;;;4.28;98.38;98897.22;4970563;28;20227;-80
2020/12/27 05:14:25;;;;;;;5.50;4.10;;;;;;;4.32;98.24;98889.00;4960899;28;20070;-80
2020/12/27 05:16:52;;;;;;;5.20;4.70;;;;;;;4.20;97.75;98862.06;4971272;28;20485;-80
2020/12/27 05:19:17;;;;;;;6.28;3.97;;;;;;;4.32;98.14;98903.03;4970273;28;20046;-73
2020/12/27 05:21:43;;;;;;;4.78;4.10;;;;;;;4.30;97.63;98870.69;4952792;28;20043;-80
2020/12/27 05:24:08;;;;;;;4.25;3.53;;;;;;;4.31;98.00;98826.59;4984768;28;20126;-81
2020/12/27 05:26:34;;;;;;;3.95;3.55;;;;;;;4.27;97.49;98823.47;4936846;28;20114;-80
2020/12/27 05:29:00;;;;;;;4.70;3.47;;;;;;;4.34;98.06;98828.91;4953921;28;20442;-83
2020/12/27 05:31:28;;;;;;;3.75;3.40;;;;;;;4.34;98.20;98842.13;4970281;28;20505;-78
2020/12/27 05:33:53;;;;;;;3.25;2.90;;;;;;;4.07;97.22;98765.66;4933289;28;20053;-74
2020/12/27 05:36:21;;;;;;;3.20;2.90;;;;;;;4.36;97.48;98793.44;4969840;28;20070;-82
2020/12/27 05:38:47;;;;;;;3.55;2.85;;;;;;;4.22;97.20;98784.34;4966022;28;20058;-80
2020/12/27 05:41:14;;;;;;;3.42;2.85;;;;;;;4.38;97.58;98780.88;4952916;28;20532;-78
2020/12/27 05:43:39;;;;;;;4.32;2.90;;;;;;;4.27;96.86;98744.25;4969879;28;20113;-80
2020/12/27 05:46:07;;;;;;;2.88;2.25;;;;;;;3.84;96.91;98659.91;4970400;28;20122;-82
2020/12/27 05:48:32;;;;;;;2.55;2.35;;;;;;;4.21;96.92;98695.56;4966658;28;20053;-82
2020/12/27 05:51:01;;;;;;;2.40;2.20;;;;;;;4.29;97.35;98729.06;4954983;28;20498;-82
2020/12/27 05:53:27;;;;;;;2.60;2.40;;;;;;;4.38;97.59;98737.81;4962756;28;20050;-74
2020/12/27 05:55:53;;;;;;;2.35;2.13;;;;;;;4.41;96.36;98716.38;4936108;28;20701;-82
2020/12/27 05:58:23;;;;;;;2.00;1.80;;;;;;;4.41;97.56;98722.47;4980604;28;20505;-81
2020/12/27 06:00:57;;;;;;;2.13;1.92;;;;;;;4.42;97.35;98704.78;4971998;28;20035;-82
2020/12/27 06:03:27;;;;;;;3.25;2.00;;;;;;;4.16;97.42;98666.19;4985865;28;20488;-84
2020/12/27 06:05:58;;;;;;;2.13;1.40;;;;;;;4.44;96.47;98684.31;4974148;28;20057;-83
2020/12/27 06:08:30;;;;;;;3.08;2.05;;;;;;;4.43;97.62;98656.25;4957128;28;20034;-80
2020/12/27 06:11:09;;;;;;;1.70;1.60;;;;;;;4.32;97.64;98640.75;4991283;28;20570;-82
2020/12/27 06:13:58;;;;;;;1.80;1.70;;;;;;;4.44;97.25;98663.19;4971675;28;20038;-81
2020/12/27 06:16:46;;;;;;;1.98;1.77;;;;;;;4.46;97.03;98648.00;4988976;28;20030;-81
2020/12/27 06:19:17;;;;;;;1.50;1.40;;;;;;;4.47;97.36;98620.59;4957866;28;20081;-81
2020/12/27 06:21:43;;;;;;;2.38;1.55;;;;;;;4.50;97.23;98654.63;4953779;28;20037;-83
2020/12/27 06:24:11;;;;;;;1.80;1.70;;;;;;;4.52;97.21;98642.06;4952837;28;20375;-82
2020/12/27 06:26:36;;;;;;;1.58;1.42;;;;;;;4.43;97.68;98624.56;4984486;28;20051;-83
2020/12/27 06:29:02;;;;;;;1.67;1.58;;;;;;;4.44;97.25;98616.50;4955118;28;20569;-82
2020/12/27 06:31:27;;;;;;;1.70;1.60;;;;;;;4.25;98.03;98570.16;4967727;28;20059;-80
2020/12/27 06:33:53;;;;;;;1.35;1.25;;;;;;;4.52;97.11;98577.84;4984034;28;20154;-80
2020/12/27 06:36:34;;;;;;;3.17;1.30;;;;;;;4.53;97.83;98617.31;4990283;28;20128;-74
2020/12/27 06:39:23;;;;;;;1.63;1.50;;;;;;;4.54;97.90;98578.50;4972149;28;20041;-80
2020/12/27 06:42:08;;;;;;;1.98;1.42;;;;;;;4.52;98.46;98576.03;4958972;28;20109;-79
2020/12/27 06:44:44;;;;;;;1.48;1.13;;;;;;;4.54;97.75;98552.91;4987386;28;20041;-81
2020/12/27 06:47:09;;;;;;;2.83;1.35;;;;;;;4.55;97.26;98548.44;4971181;28;20058;-81
2020/12/27 06:49:35;;;;;;;1.40;1.30;;;;;;;4.56;97.71;98532.41;4972627;28;20041;-80
2020/12/27 06:52:22;;;;;;;1.58;1.13;;;;;;;4.59;97.32;98520.72;4989293;28;20070;-74
2020/12/27 06:54:54;;;;;;;1.35;1.25;;;;;;;4.41;97.61;98494.53;4969606;28;20208;-81
2020/12/27 06:57:43;;;;;;;1.23;0.95;;;;;;;4.57;97.81;98512.94;4968332;28;20110;-80
2020/12/27 07:00:17;;;;;;;1.00;1.00;;;;;;;4.60;97.78;98528.44;4970681;28;20054;-81
2020/12/27 07:02:44;;;;;;;1.95;1.10;;;;;;;4.58;97.74;98495.28;4984888;28;20054;-81
2020/12/27 07:05:10;;;;;;;1.17;1.10;;;;;;;4.57;98.21;98473.31;4968029;28;20129;-81
2020/12/27 07:07:46;;;;;;;1.77;1.48;;;;;;;4.55;98.59;98485.84;4973725;28;20043;-80
2020/12/27 07:10:14;;;;;;;1.20;1.10;;;;;;;4.59;97.62;98454.66;4969946;28;20031;-82
2020/12/27 07:12:41;;;;;;;2.33;1.02;;;;;;;4.62;97.13;98466.69;4984778;28;20038;-83
2020/12/27 07:15:09;;;;;;;1.50;1.02;;;;;;;4.61;97.65;98460.59;4973168;28;20504;-84
2020/12/27 07:17:35;;;;;;;1.20;1.10;;;;;;;4.59;97.86;98439.63;4986506;28;20027;-74
2020/12/27 07:20:15;;;;;;;1.00;1.00;;;;;;;4.32;98.09;98406.59;4990150;28;20042;-85
2020/12/27 07:22:41;;;;;;;1.25;0.90;;;;;;;4.57;97.60;98424.94;4967598;28;20040;-88
2020/12/27 07:25:14;;;;;;;1.10;1.00;;;;;;;4.52;97.78;98424.63;4960421;28;20038;-88
2020/12/27 07:27:40;;;;;;;1.30;1.20;;;;;;;4.42;97.79;98396.63;4988116;28;20043;-84
2020/12/27 07:30:06;;;;;;;0.98;0.90;;;;;;;4.57;98.39;98444.25;4954165;28;20034;-89
2020/12/27 07:32:38;;;;;;;1.95;0.80;;;;;;;4.51;97.20;98402.69;4970816;28;20090;-86
2020/12/27 07:35:04;;;;;;;0.80;0.80;;;;;;;4.60;97.54;98393.72;4954864;28;20030;-88
2020/12/27 07:37:29;;;;;;;2.05;0.70;;;;;;;3.03;97.44;98128.09;4955744;28;20081;-88
2020/12/27 07:39:57;;;;;;;2.70;0.73;;;;;;;4.19;97.32;98317.38;4971941;28;20081;-82
2020/12/27 07:42:25;;;;;;;0.70;0.70;;;;;;;4.56;97.64;98355.44;4969624;28;20049;-83
2020/12/27 07:44:50;;;;;;;;;;;;;;;4.53;97.41;98362.91;4993659;28;20049;-79
2020/12/27 07:47:16;;;;;;;0.80;0.60;;;;;;;4.20;97.52;98303.19;4952509;28;19922;-79
2020/12/27 07:49:42;;;;;;;0.80;0.80;;;;;;;4.49;97.51;98346.59;4970277;28;20046;-80
2020/12/27 07:52:08;;;;;;;1.05;0.85;;;;;;;4.25;97.09;98290.31;4973949;28;20062;-83
2020/12/27 07:54:33;;;;;;;1.48;0.93;;;;;;;4.50;98.25;98331.53;4992779;28;20091;-81
2020/12/27 07:56:59;;;;;;;0.98;0.98;;;;;;;4.48;98.21;98307.16;4958729;28;20121;-85
2020/12/27 07:59:24;;;;;;;1.40;0.82;;;;;;;4.29;98.07;98288.94;4990173;28;20037;-82
2020/12/27 08:01:50;;;;;;;1.38;1.13;;;;;;;4.36;98.19;98283.78;4991512;28;20509;-81
2020/12/27 08:04:15;;;;;;;1.27;1.17;;;;;;;4.17;98.05;98242.00;4941381;28;20132;-82
2020/12/27 08:06:41;;;;;;;1.77;0.80;;;;;;;4.53;98.30;98300.34;4964817;28;20152;-85
2020/12/27 08:09:13;;;;;;;0.90;0.85;;;;;;;4.54;97.50;98277.38;4953166;28;20058;-78
2020/12/27 08:11:40;;;;;;;0.80;0.80;;;;;;;4.43;97.66;98263.59;4979596;28;20034;-78
2020/12/27 08:14:08;;;;;;;1.88;1.00;;;;;;;4.36;98.44;98261.84;4971677;28;20122;-90
2020/12/27 08:16:46;;;;;;;1.42;1.23;;;;;;;3.94;97.83;98163.63;4963397;28;20045;-82
2020/12/27 08:19:13;;;;;;;0.88;0.88;;;;;;;4.47;98.08;98239.47;4975295;28;20034;-80
2020/12/27 08:21:39;;;;;;;0.98;0.88;;;;;;;4.28;97.92;98202.81;4954482;28;20513;-81
2020/12/27 08:24:06;;;;;;;1.00;0.82;;;;;;;4.39;97.64;98209.50;4942172;28;20042;-85
2020/12/27 08:26:39;;;;;;;2.78;0.90;;;;;;;4.58;97.21;98234.59;4994417;28;20560;-80
2020/12/27 08:29:17;;;;;;;1.05;1.02;;;;;;;4.57;98.34;98227.66;4971008;28;20064;-82
2020/12/27 08:31:44;;;;;;;0.88;0.80;;;;;;;4.59;98.13;98233.59;4956651;28;20096;-81
2020/12/27 08:34:11;;;;;;;1.75;1.00;;;;;;;4.56;97.98;98207.53;4990600;28;20045;-81
2020/12/27 08:36:51;;;;;;;0.68;0.68;;;;;;;4.66;98.22;98202.00;4959056;28;20030;-80
2020/12/27 08:39:35;;;;;;;1.67;0.80;;;;;;;4.45;98.19;98160.41;4973186;28;20039;-79
2020/12/27 08:42:36;;;;;;;2.08;1.42;;;;;;;4.70;97.70;98191.88;4975493;28;20031;-79
2020/12/27 08:45:04;;;;;;;0.93;0.93;;;;;;;4.62;98.37;98152.34;4968564;28;20049;-79
2020/12/27 08:48:05;;;;;;;1.08;0.90;;;;;;;4.60;98.19;98160.47;4953108;28;20072;-81
2020/12/27 08:50:51;;;;;;;0.85;0.85;;;;;;;4.73;97.85;98163.28;4942772;28;20058;-79
2020/12/27 08:53:16;;;;;;;0.98;0.80;;;;;;;4.65;97.16;98152.78;4985456;28;20073;-80
2020/12/27 08:55:42;;;;;;;0.85;0.73;;;;;;;4.74;98.15;98167.59;4972104;28;20085;-78
2020/12/27 08:58:10;;;;;;;0.90;0.80;;;;;;;4.65;97.37;98133.50;4976127;28;20060;-78
2020/12/27 09:00:36;;;;;;;0.82;0.80;;;;;;;4.75;97.70;98126.13;4979464;28;20052;-79
2020/12/27 09:03:04;;;;;;;0.70;0.70;;;;;;;4.52;97.45;98087.41;4987899;28;20050;-79
2020/12/27 09:05:34;;;;;;;0.82;0.80;;;;;;;4.65;98.13;98107.09;4954584;28;20046;-78
2020/12/27 09:08:00;;;;;;;0.80;0.80;;;;;;;4.78;97.55;98114.34;4972692;28;20042;-80
2020/12/27 09:10:29;;;;;;;1.27;0.80;;;;;;;4.47;98.14;98066.00;4955958;28;20049;-79
2020/12/27 09:13:05;;;;;;;2.08;0.90;;;;;;;4.51;97.61;98069.09;4985972;28;20056;-77
2020/12/27 09:15:32;;;;;;;0.80;0.80;;;;;;;4.62;96.97;98094.22;4957786;28;20189;-78
2020/12/27 09:18:01;;;;;;;1.67;1.00;;;;;;;4.77;96.86;98094.22;4956625;28;20029;-77
2020/12/27 09:20:27;;;;;;;1.75;0.98;;;;;;;4.76;97.39;98080.19;4973107;28;20030;-78
2020/12/27 09:22:52;;;;;;;0.80;0.80;;;;;;;4.57;97.40;98055.16;4983972;28;20061;-80
2020/12/27 09:25:19;;;;;;;1.25;0.73;;;;;;;4.17;97.55;97981.50;4940035;28;20082;-77
2020/12/27 09:27:45;;;;;;;0.82;0.82;;;;;;;4.73;97.63;98060.25;4954461;28;20054;-77
2020/12/27 09:30:14;;;;;;;1.10;0.90;;;;;;;4.43;97.95;98011.91;4970077;28;20516;-77
2020/12/27 09:32:39;;;;;;;;;;;;;;;4.75;97.34;98050.31;4949481;28;20034;-79
2020/12/27 09:35:04;;;;;;;1.48;0.90;;;;;;;4.78;97.52;98054.41;4950863;28;19968;-80
2020/12/27 09:37:32;;;;;;;0.80;0.80;;;;;;;4.80;97.62;98036.56;4965974;28;20146;-80
2020/12/27 09:39:57;;;;;;;0.85;0.80;;;;;;;4.70;98.24;98001.66;4971102;28;20093;-80
2020/12/27 09:42:27;;;;;;;1.02;0.95;;;;;;;4.84;97.46;98040.44;4950430;28;20349;-80
2020/12/27 09:44:53;;;;;;;1.23;0.90;;;;;;;4.52;97.44;97973.84;4965569;28;20321;-80
2020/12/27 09:47:25;;;;;;;0.82;0.82;;;;;;;4.90;97.13;98009.81;4982960;28;20136;-79
2020/12/27 09:50:03;;;;;;;1.40;1.00;;;;;;;4.91;97.92;97998.25;4980464;28;20679;-80
2020/12/27 09:52:28;;;;;;;3.72;1.00;;;;;;;4.78;96.84;97976.97;4961217;28;20034;-79
2020/12/27 09:54:54;;;;;;;0.93;0.80;;;;;;;4.98;96.81;97982.47;4967543;28;20529;-79
2020/12/27 09:57:21;;;;;;;0.80;0.80;;;;;;;4.90;96.99;97994.81;4949745;28;20540;-80
2020/12/27 09:59:47;;;;;;;0.93;0.80;;;;;;;4.99;96.73;97994.66;4945452;28;20136;-78
2020/12/27 10:02:13;;;;;;;1.95;0.85;;;;;;;4.43;97.61;97919.47;4965058;28;20056;-78
2020/12/27 10:04:38;;;;;;;1.10;0.75;;;;;;;5.01;97.55;97961.78;4975542;28;20122;-78
2020/12/27 10:07:04;;;;;;;2.13;0.80;;;;;;;5.03;97.02;97953.66;4961393;28;20373;-79
2020/12/27 10:09:29;;;;;;;1.23;0.73;;;;;;;4.70;97.21;97896.81;4946595;28;20077;-78
2020/12/27 10:11:55;;;;;;;2.42;1.65;;;;;;;5.05;96.81;97947.16;4961533;28;20398;-79
2020/12/27 10:14:21;;;;;;;1.55;1.40;;;;;;;5.04;97.43;97944.72;4961398;28;20571;-78
2020/12/27 10:16:46;;;;;;;0.88;0.70;;;;;;;4.80;97.24;97883.31;4947669;28;20142;-78
2020/12/27 10:19:12;;;;;;;1.25;0.70;;;;;;;5.12;96.54;97926.06;4962054;28;20041;-78
2020/12/27 10:21:37;;;;;;;0.80;0.75;;;;;;;5.12;97.21;97918.16;4977772;28;20030;-78
2020/12/27 10:24:03;;;;;;;0.68;0.68;;;;;;;5.12;96.74;97894.34;4955264;28;20038;-78
2020/12/27 10:26:28;;;;;;;0.77;0.77;;;;;;;5.12;97.20;97901.47;4964746;28;20093;-78
2020/12/27 10:28:54;;;;;;;1.08;0.82;;;;;;;5.10;97.26;97895.56;4947092;28;20230;-78
2020/12/27 10:31:19;;;;;;;0.73;0.73;;;;;;;5.08;97.29;97881.72;4961231;28;20201;-78
2020/12/27 10:33:45;;;;;;;0.98;0.70;;;;;;;5.05;97.16;97878.44;4964509;28;20185;-78
2020/12/27 10:36:10;;;;;;;0.98;0.98;;;;;;;5.09;97.20;97875.44;4949738;28;20097;-78
2020/12/27 10:38:36;;;;;;;0.82;0.82;;;;;;;5.09;97.75;97855.09;4947416;28;20157;-79
2020/12/27 10:41:02;;;;;;;0.60;0.60;;;;;;;5.11;97.59;97866.28;4961353;28;20141;-81
2020/12/27 10:43:27;;;;;;;2.30;0.80;;;;;;;5.09;96.96;97852.44;4978469;28;20412;-81
2020/12/27 10:46:02;;;;;;;1.73;1.20;;;;;;;5.04;96.73;97882.09;4956331;28;20197;-80
2020/12/27 10:48:27;;;;;;;1.75;1.00;;;;;;;5.04;96.26;97828.44;4961424;28;20065;-80
2020/12/27 10:50:53;;;;;;;1.00;0.80;;;;;;;4.94;96.60;97818.19;4960101;28;20058;-80
2020/12/27 10:53:18;;;;;;;1.00;1.00;;;;;;;5.20;96.65;97856.41;4938157;28;20074;-80
2020/12/27 10:55:47;;;;;;;1.77;0.95;;;;;;;4.50;96.17;97714.41;4960726;28;20113;-80
2020/12/27 10:58:13;;;;;;;1.40;1.30;;;;;;;5.13;95.88;97823.81;4955573;28;20444;-80
2020/12/27 11:00:38;;;;;;;0.77;0.77;;;;;;;5.26;95.47;97820.44;4947403;28;20039;-80
2020/12/27 11:03:04;;;;;;;0.85;0.85;;;;;;;5.34;95.69;97820.31;4973896;28;20552;-78
2020/12/27 11:05:30;;;;;;;1.58;0.68;;;;;;;5.35;95.64;97811.38;4990284;28;20070;-78
2020/12/27 11:07:55;;;;;;;0.90;0.68;;;;;;;5.35;95.21;97814.81;4979030;28;20042;-79
2020/12/27 11:10:21;;;;;;;0.73;0.73;;;;;;;5.38;95.11;97816.25;4966091;28;20612;-79
2020/12/27 11:12:46;;;;;;;0.82;0.80;;;;;;;5.12;95.13;97771.97;4982744;28;20734;-81
2020/12/27 11:15:14;;;;;;;0.82;0.82;;;;;;;5.29;94.69;97797.09;4977591;28;20038;-80
2020/12/27 11:17:39;;;;;;;0.90;0.80;;;;;;;5.42;95.22;97769.91;4969693;28;20109;-79
2020/12/27 11:20:05;;;;;;;0.75;0.73;;;;;;;4.99;95.30;97728.56;4951725;28;20121;-78
2020/12/27 11:22:30;;;;;;;0.80;0.80;;;;;;;5.47;94.53;97785.16;4952585;28;20062;-82
2020/12/27 11:24:56;;;;;;;0.82;0.82;;;;;;;4.75;94.61;97671.69;4956374;28;20080;-80
2020/12/27 11:27:21;;;;;;;1.75;1.10;;;;;;;5.47;95.22;97790.47;4989645;28;20134;-79
2020/12/27 11:29:47;;;;;;;0.98;0.85;;;;;;;5.47;95.73;97791.28;4972316;28;20074;-83
2020/12/27 11:32:12;;;;;;;1.33;1.20;;;;;;;5.48;95.04;97794.75;4969424;28;20043;-83
2020/12/27 11:34:38;;;;;;;1.88;1.42;;;;;;;5.33;95.90;97760.50;4970802;28;20137;-79
2020/12/27 11:37:04;;;;;;;2.97;1.70;;;;;;;5.28;96.77;97749.69;4955127;28;20133;-80
2020/12/27 11:39:29;;;;;;;0.98;0.80;;;;;;;5.54;96.03;97771.97;4956585;28;20058;-78